sensor_id;sensor_type;location;lat;lon;timestamp;P1;durP1;ratioP1;P2;durP2;ratioP2
31734;SDS011;18313;48.518;9.124;2023-09-08T00:00:34;6.95;;;5.38;;
31734;SDS011;18313;48.518;9.124;2023-09-08T00:03:01;6.13;;;5.10;;
31734;SDS011;18313;48.518;9.124;2023-09-08T00:05:29;8.73;;;5.72;;
31734;SDS011;18313;48.518;9.124;2023-09-08T00:07:56;9.55;;;5.45;;
31734;SDS011;18313;48.518;9.124;2023-09-08T00:10:23;8.10;;;5.25;;
31734;SDS011;18313;48.518;9.124;2023-09-08T00:12:50;7.32;;;5.25;;
31734;SDS011;18313;48.518;9.124;2023-09-08T00:15:17;7.38;;;5.40;;
31734;SDS011;18313;48.518;9.124;2023-09-08T00:17:44;7.47;;;5.90;;
31734;SDS011;18313;48.518;9.124;2023-09-08T00:20:13;8.38;;;5.60;;
31734;SDS011;18313;48.518;9.124;2023-09-08T00:22:41;8.20;;;6.10;;
31734;SDS011;18313;48.518;9.124;2023-09-08T00:25:08;7.55;;;5.72;;
31734;SDS011;18313;48.518;9.124;2023-09-08T00:27:35;8.00;;;5.70;;
31734;SDS011;18313;48.518;9.124;2023-09-08T00:30:03;11.60;;;6.07;;
31734;SDS011;18313;48.518;9.124;2023-09-08T00:32:30;8.48;;;5.82;;
31734;SDS011;18313;48.518;9.124;2023-09-08T00:34:58;7.18;;;5.88;;
31734;SDS011;18313;48.518;9.124;2023-09-08T00:37:25;9.45;;;6.07;;
31734;SDS011;18313;48.518;9.124;2023-09-08T00:39:52;8.20;;;5.90;;
31734;SDS011;18313;48.518;9.124;2023-09-08T00:42:19;10.23;;;6.57;;
31734;SDS011;18313;48.518;9.124;2023-09-08T00:44:46;8.80;;;6.47;;
31734;SDS011;18313;48.518;9.124;2023-09-08T00:47:13;10.20;;;6.57;;
31734;SDS011;18313;48.518;9.124;2023-09-08T00:49:40;9.48;;;6.47;;
31734;SDS011;18313;48.518;9.124;2023-09-08T00:52:07;9.52;;;6.82;;
31734;SDS011;18313;48.518;9.124;2023-09-08T00:54:34;11.32;;;7.05;;
31734;SDS011;18313;48.518;9.124;2023-09-08T00:57:02;8.27;;;6.53;;
31734;SDS011;18313;48.518;9.124;2023-09-08T00:59:32;9.13;;;6.88;;
31734;SDS011;18313;48.518;9.124;2023-09-08T01:01:59;8.20;;;6.45;;
31734;SDS011;18313;48.518;9.124;2023-09-08T01:04:27;11.65;;;6.95;;
31734;SDS011;18313;48.518;9.124;2023-09-08T01:06:55;11.63;;;6.75;;
31734;SDS011;18313;48.518;9.124;2023-09-08T01:09:23;10.55;;;6.65;;
31734;SDS011;18313;48.518;9.124;2023-09-08T01:11:51;8.57;;;6.85;;
31734;SDS011;18313;48.518;9.124;2023-09-08T01:14:18;10.43;;;7.25;;
31734;SDS011;18313;48.518;9.124;2023-09-08T01:16:46;11.18;;;7.07;;
31734;SDS011;18313;48.518;9.124;2023-09-08T01:19:13;9.82;;;7.80;;
31734;SDS011;18313;48.518;9.124;2023-09-08T01:21:52;11.00;;;7.28;;
31734;SDS011;18313;48.518;9.124;2023-09-08T01:24:38;8.85;;;7.10;;
31734;SDS011;18313;48.518;9.124;2023-09-08T01:27:30;9.20;;;7.38;;
31734;SDS011;18313;48.518;9.124;2023-09-08T01:30:01;12.80;;;7.18;;
31734;SDS011;18313;48.518;9.124;2023-09-08T01:32:30;12.75;;;7.72;;
31734;SDS011;18313;48.518;9.124;2023-09-08T01:34:59;13.30;;;8.00;;
31734;SDS011;18313;48.518;9.124;2023-09-08T01:37:26;10.18;;;7.50;;
31734;SDS011;18313;48.518;9.124;2023-09-08T01:39:53;10.77;;;7.63;;
31734;SDS011;18313;48.518;9.124;2023-09-08T01:42:21;11.18;;;8.32;;
31734;SDS011;18313;48.518;9.124;2023-09-08T01:44:48;13.45;;;8.45;;
31734;SDS011;18313;48.518;9.124;2023-09-08T01:47:15;12.70;;;7.95;;
31734;SDS011;18313;48.518;9.124;2023-09-08T01:49:43;10.57;;;7.88;;
31734;SDS011;18313;48.518;9.124;2023-09-08T01:52:10;8.80;;;6.82;;
31734;SDS011;18313;48.518;9.124;2023-09-08T01:54:37;9.48;;;7.75;;
31734;SDS011;18313;48.518;9.124;2023-09-08T01:57:04;9.30;;;7.45;;
31734;SDS011;18313;48.518;9.124;2023-09-08T01:59:32;12.63;;;7.80;;
31734;SDS011;18313;48.518;9.124;2023-09-08T02:01:59;11.32;;;8.50;;
31734;SDS011;18313;48.518;9.124;2023-09-08T02:04:26;10.27;;;8.60;;
31734;SDS011;18313;48.518;9.124;2023-09-08T02:06:53;13.18;;;7.93;;
31734;SDS011;18313;48.518;9.124;2023-09-08T02:09:20;9.68;;;7.30;;
31734;SDS011;18313;48.518;9.124;2023-09-08T02:11:48;11.40;;;7.88;;
31734;SDS011;18313;48.518;9.124;2023-09-08T02:14:15;8.75;;;7.00;;
31734;SDS011;18313;48.518;9.124;2023-09-08T02:16:42;11.38;;;7.80;;
31734;SDS011;18313;48.518;9.124;2023-09-08T02:19:10;11.48;;;8.23;;
31734;SDS011;18313;48.518;9.124;2023-09-08T02:21:37;9.30;;;7.22;;
31734;SDS011;18313;48.518;9.124;2023-09-08T02:24:05;10.98;;;7.95;;
31734;SDS011;18313;48.518;9.124;2023-09-08T02:26:32;10.30;;;8.02;;
31734;SDS011;18313;48.518;9.124;2023-09-08T02:29:00;9.80;;;7.68;;
31734;SDS011;18313;48.518;9.124;2023-09-08T02:31:27;9.90;;;7.70;;
31734;SDS011;18313;48.518;9.124;2023-09-08T02:33:54;11.07;;;8.15;;
31734;SDS011;18313;48.518;9.124;2023-09-08T02:36:22;11.00;;;7.65;;
31734;SDS011;18313;48.518;9.124;2023-09-08T02:38:53;10.25;;;7.53;;
31734;SDS011;18313;48.518;9.124;2023-09-08T02:41:21;9.88;;;7.65;;
31734;SDS011;18313;48.518;9.124;2023-09-08T02:43:49;10.68;;;7.85;;
31734;SDS011;18313;48.518;9.124;2023-09-08T02:46:16;9.68;;;7.93;;
31734;SDS011;18313;48.518;9.124;2023-09-08T02:48:43;10.23;;;8.05;;
31734;SDS011;18313;48.518;9.124;2023-09-08T02:51:10;9.90;;;7.80;;
31734;SDS011;18313;48.518;9.124;2023-09-08T02:53:38;11.32;;;7.53;;
31734;SDS011;18313;48.518;9.124;2023-09-08T02:56:06;10.60;;;8.13;;
31734;SDS011;18313;48.518;9.124;2023-09-08T02:58:33;9.80;;;8.23;;
31734;SDS011;18313;48.518;9.124;2023-09-08T03:01:13;9.90;;;8.35;;
31734;SDS011;18313;48.518;9.124;2023-09-08T03:03:42;12.00;;;7.60;;
31734;SDS011;18313;48.518;9.124;2023-09-08T03:06:10;9.55;;;7.70;;
31734;SDS011;18313;48.518;9.124;2023-09-08T03:08:38;10.52;;;9.10;;
31734;SDS011;18313;48.518;9.124;2023-09-08T03:11:05;9.88;;;8.05;;
31734;SDS011;18313;48.518;9.124;2023-09-08T03:13:32;10.57;;;9.43;;
31734;SDS011;18313;48.518;9.124;2023-09-08T03:16:04;12.18;;;9.15;;
31734;SDS011;18313;48.518;9.124;2023-09-08T03:18:35;12.30;;;8.65;;
31734;SDS011;18313;48.518;9.124;2023-09-08T03:21:04;13.00;;;10.10;;
31734;SDS011;18313;48.518;9.124;2023-09-08T03:23:39;13.82;;;9.93;;
31734;SDS011;18313;48.518;9.124;2023-09-08T03:26:07;14.13;;;10.07;;
31734;SDS011;18313;48.518;9.124;2023-09-08T03:28:35;11.90;;;10.05;;
31734;SDS011;18313;48.518;9.124;2023-09-08T03:31:03;11.98;;;9.98;;
31734;SDS011;18313;48.518;9.124;2023-09-08T03:33:30;11.98;;;10.07;;
31734;SDS011;18313;48.518;9.124;2023-09-08T03:35:58;11.85;;;9.60;;
31734;SDS011;18313;48.518;9.124;2023-09-08T03:38:25;13.02;;;9.68;;
31734;SDS011;18313;48.518;9.124;2023-09-08T03:40:52;17.20;;;10.15;;
31734;SDS011;18313;48.518;9.124;2023-09-08T03:43:19;14.43;;;9.70;;
31734;SDS011;18313;48.518;9.124;2023-09-08T03:45:47;13.50;;;9.57;;
31734;SDS011;18313;48.518;9.124;2023-09-08T03:48:14;14.77;;;9.82;;
31734;SDS011;18313;48.518;9.124;2023-09-08T03:50:41;12.60;;;9.85;;
31734;SDS011;18313;48.518;9.124;2023-09-08T03:53:11;13.48;;;10.68;;
31734;SDS011;18313;48.518;9.124;2023-09-08T03:55:39;12.35;;;9.05;;
31734;SDS011;18313;48.518;9.124;2023-09-08T03:58:06;13.00;;;8.95;;
31734;SDS011;18313;48.518;9.124;2023-09-08T04:00:34;13.90;;;9.63;;
31734;SDS011;18313;48.518;9.124;2023-09-08T04:03:01;12.73;;;9.32;;
31734;SDS011;18313;48.518;9.124;2023-09-08T04:05:29;12.77;;;9.23;;
31734;SDS011;18313;48.518;9.124;2023-09-08T04:07:56;11.40;;;9.45;;
31734;SDS011;18313;48.518;9.124;2023-09-08T04:10:23;14.15;;;9.13;;
31734;SDS011;18313;48.518;9.124;2023-09-08T04:12:50;11.40;;;8.50;;
31734;SDS011;18313;48.518;9.124;2023-09-08T04:15:17;11.10;;;8.73;;
31734;SDS011;18313;48.518;9.124;2023-09-08T04:17:45;13.23;;;9.23;;
31734;SDS011;18313;48.518;9.124;2023-09-08T04:20:12;11.05;;;8.75;;
31734;SDS011;18313;48.518;9.124;2023-09-08T04:22:41;12.23;;;9.13;;
31734;SDS011;18313;48.518;9.124;2023-09-08T04:25:08;10.52;;;8.68;;
31734;SDS011;18313;48.518;9.124;2023-09-08T04:27:36;12.38;;;9.35;;
31734;SDS011;18313;48.518;9.124;2023-09-08T04:30:04;11.75;;;9.13;;
31734;SDS011;18313;48.518;9.124;2023-09-08T04:32:32;12.38;;;9.85;;
31734;SDS011;18313;48.518;9.124;2023-09-08T04:34:59;14.70;;;9.95;;
31734;SDS011;18313;48.518;9.124;2023-09-08T04:37:27;12.98;;;9.85;;
31734;SDS011;18313;48.518;9.124;2023-09-08T04:39:54;16.15;;;10.95;;
31734;SDS011;18313;48.518;9.124;2023-09-08T04:42:21;14.23;;;11.35;;
31734;SDS011;18313;48.518;9.124;2023-09-08T04:44:49;14.13;;;10.50;;
31734;SDS011;18313;48.518;9.124;2023-09-08T04:47:16;14.68;;;11.13;;
31734;SDS011;18313;48.518;9.124;2023-09-08T04:49:44;12.43;;;10.43;;
31734;SDS011;18313;48.518;9.124;2023-09-08T04:52:11;14.20;;;10.65;;
31734;SDS011;18313;48.518;9.124;2023-09-08T04:54:39;14.25;;;9.85;;
31734;SDS011;18313;48.518;9.124;2023-09-08T04:57:06;15.80;;;11.02;;
31734;SDS011;18313;48.518;9.124;2023-09-08T04:59:48;12.77;;;9.52;;
31734;SDS011;18313;48.518;9.124;2023-09-08T05:02:16;12.95;;;10.27;;
31734;SDS011;18313;48.518;9.124;2023-09-08T05:04:45;13.05;;;11.15;;
31734;SDS011;18313;48.518;9.124;2023-09-08T05:07:12;11.73;;;10.30;;
31734;SDS011;18313;48.518;9.124;2023-09-08T05:09:40;9.30;;;7.97;;
31734;SDS011;18313;48.518;9.124;2023-09-08T05:12:07;10.40;;;8.20;;
31734;SDS011;18313;48.518;9.124;2023-09-08T05:14:35;11.48;;;8.75;;
31734;SDS011;18313;48.518;9.124;2023-09-08T05:17:03;11.43;;;8.73;;
31734;SDS011;18313;48.518;9.124;2023-09-08T05:19:31;11.05;;;8.27;;
31734;SDS011;18313;48.518;9.124;2023-09-08T05:21:58;12.00;;;8.75;;
31734;SDS011;18313;48.518;9.124;2023-09-08T05:24:25;10.20;;;8.43;;
31734;SDS011;18313;48.518;9.124;2023-09-08T05:26:53;12.20;;;9.27;;
31734;SDS011;18313;48.518;9.124;2023-09-08T05:29:21;11.95;;;9.15;;
31734;SDS011;18313;48.518;9.124;2023-09-08T05:31:48;10.63;;;8.57;;
31734;SDS011;18313;48.518;9.124;2023-09-08T05:34:15;11.07;;;9.32;;
31734;SDS011;18313;48.518;9.124;2023-09-08T05:36:42;12.93;;;9.80;;
31734;SDS011;18313;48.518;9.124;2023-09-08T05:39:09;14.85;;;9.70;;
31734;SDS011;18313;48.518;9.124;2023-09-08T05:41:37;11.60;;;9.70;;
31734;SDS011;18313;48.518;9.124;2023-09-08T05:44:04;12.88;;;9.25;;
31734;SDS011;18313;48.518;9.124;2023-09-08T05:46:32;16.52;;;10.93;;
31734;SDS011;18313;48.518;9.124;2023-09-08T05:48:59;12.85;;;10.20;;
31734;SDS011;18313;48.518;9.124;2023-09-08T05:51:26;12.05;;;9.60;;
31734;SDS011;18313;48.518;9.124;2023-09-08T05:53:53;13.52;;;11.13;;
31734;SDS011;18313;48.518;9.124;2023-09-08T05:56:24;12.82;;;10.43;;
31734;SDS011;18313;48.518;9.124;2023-09-08T05:58:53;15.40;;;10.98;;
31734;SDS011;18313;48.518;9.124;2023-09-08T06:01:20;13.30;;;9.88;;
31734;SDS011;18313;48.518;9.124;2023-09-08T06:03:48;14.77;;;10.48;;
31734;SDS011;18313;48.518;9.124;2023-09-08T06:06:15;15.70;;;11.07;;
31734;SDS011;18313;48.518;9.124;2023-09-08T06:08:43;12.43;;;10.27;;
31734;SDS011;18313;48.518;9.124;2023-09-08T06:11:10;14.55;;;11.40;;
31734;SDS011;18313;48.518;9.124;2023-09-08T06:13:38;14.00;;;10.63;;
31734;SDS011;18313;48.518;9.124;2023-09-08T06:16:05;11.15;;;9.48;;
31734;SDS011;18313;48.518;9.124;2023-09-08T06:18:32;12.88;;;10.30;;
31734;SDS011;18313;48.518;9.124;2023-09-08T06:21:06;14.20;;;10.25;;
31734;SDS011;18313;48.518;9.124;2023-09-08T06:23:34;13.93;;;10.00;;
31734;SDS011;18313;48.518;9.124;2023-09-08T06:26:03;10.75;;;8.95;;
31734;SDS011;18313;48.518;9.124;2023-09-08T06:28:30;11.85;;;10.18;;
31734;SDS011;18313;48.518;9.124;2023-09-08T06:30:59;12.68;;;10.15;;
31734;SDS011;18313;48.518;9.124;2023-09-08T06:33:26;16.17;;;10.40;;
31734;SDS011;18313;48.518;9.124;2023-09-08T06:35:53;12.13;;;9.77;;
31734;SDS011;18313;48.518;9.124;2023-09-08T06:38:20;11.50;;;9.93;;
31734;SDS011;18313;48.518;9.124;2023-09-08T06:40:47;11.80;;;9.65;;
31734;SDS011;18313;48.518;9.124;2023-09-08T06:43:15;15.85;;;10.88;;
31734;SDS011;18313;48.518;9.124;2023-09-08T06:45:42;13.25;;;10.40;;
31734;SDS011;18313;48.518;9.124;2023-09-08T06:48:10;12.23;;;10.15;;
31734;SDS011;18313;48.518;9.124;2023-09-08T06:50:37;12.65;;;9.98;;
31734;SDS011;18313;48.518;9.124;2023-09-08T06:53:04;14.48;;;10.35;;
31734;SDS011;18313;48.518;9.124;2023-09-08T06:55:31;12.93;;;10.07;;
31734;SDS011;18313;48.518;9.124;2023-09-08T06:57:58;13.40;;;10.10;;
31734;SDS011;18313;48.518;9.124;2023-09-08T07:00:26;13.70;;;9.77;;
31734;SDS011;18313;48.518;9.124;2023-09-08T07:02:55;13.02;;;9.63;;
31734;SDS011;18313;48.518;9.124;2023-09-08T07:05:22;15.00;;;9.65;;
31734;SDS011;18313;48.518;9.124;2023-09-08T07:07:49;11.43;;;9.30;;
31734;SDS011;18313;48.518;9.124;2023-09-08T07:10:16;16.20;;;10.25;;
31734;SDS011;18313;48.518;9.124;2023-09-08T07:12:44;11.32;;;9.00;;
31734;SDS011;18313;48.518;9.124;2023-09-08T07:15:11;12.38;;;7.80;;
31734;SDS011;18313;48.518;9.124;2023-09-08T07:17:38;10.07;;;8.15;;
31734;SDS011;18313;48.518;9.124;2023-09-08T07:20:05;13.73;;;9.40;;
31734;SDS011;18313;48.518;9.124;2023-09-08T07:22:33;12.35;;;8.25;;
31734;SDS011;18313;48.518;9.124;2023-09-08T07:25:00;12.02;;;8.15;;
31734;SDS011;18313;48.518;9.124;2023-09-08T07:27:27;11.02;;;9.13;;
31734;SDS011;18313;48.518;9.124;2023-09-08T07:29:54;12.57;;;8.73;;
31734;SDS011;18313;48.518;9.124;2023-09-08T07:32:21;11.15;;;8.90;;
31734;SDS011;18313;48.518;9.124;2023-09-08T07:34:51;10.60;;;8.00;;
31734;SDS011;18313;48.518;9.124;2023-09-08T07:37:22;11.75;;;8.25;;
31734;SDS011;18313;48.518;9.124;2023-09-08T07:39:50;11.52;;;8.00;;
31734;SDS011;18313;48.518;9.124;2023-09-08T07:42:17;9.00;;;7.18;;
31734;SDS011;18313;48.518;9.124;2023-09-08T07:44:44;11.60;;;7.53;;
31734;SDS011;18313;48.518;9.124;2023-09-08T07:47:12;9.90;;;7.70;;
31734;SDS011;18313;48.518;9.124;2023-09-08T07:49:44;8.82;;;6.97;;
31734;SDS011;18313;48.518;9.124;2023-09-08T07:52:16;10.38;;;7.07;;
31734;SDS011;18313;48.518;9.124;2023-09-08T07:54:43;12.93;;;6.75;;
31734;SDS011;18313;48.518;9.124;2023-09-08T07:57:10;13.27;;;7.07;;
31734;SDS011;18313;48.518;9.124;2023-09-08T07:59:37;7.82;;;6.70;;
31734;SDS011;18313;48.518;9.124;2023-09-08T08:02:04;7.75;;;6.30;;
31734;SDS011;18313;48.518;9.124;2023-09-08T08:04:31;9.13;;;6.55;;
31734;SDS011;18313;48.518;9.124;2023-09-08T08:06:58;7.13;;;6.22;;
31734;SDS011;18313;48.518;9.124;2023-09-08T08:09:25;8.45;;;6.55;;
31734;SDS011;18313;48.518;9.124;2023-09-08T08:11:52;9.93;;;6.43;;
31734;SDS011;18313;48.518;9.124;2023-09-08T08:14:20;10.20;;;6.55;;
31734;SDS011;18313;48.518;9.124;2023-09-08T08:16:47;10.02;;;7.05;;
31734;SDS011;18313;48.518;9.124;2023-09-08T08:19:14;12.23;;;7.07;;
31734;SDS011;18313;48.518;9.124;2023-09-08T08:21:41;8.77;;;6.20;;
31734;SDS011;18313;48.518;9.124;2023-09-08T08:24:09;9.02;;;6.40;;
31734;SDS011;18313;48.518;9.124;2023-09-08T08:26:37;9.93;;;6.40;;
31734;SDS011;18313;48.518;9.124;2023-09-08T08:29:04;10.02;;;6.50;;
31734;SDS011;18313;48.518;9.124;2023-09-08T08:31:31;11.55;;;6.20;;
31734;SDS011;18313;48.518;9.124;2023-09-08T08:33:59;13.52;;;6.20;;
31734;SDS011;18313;48.518;9.124;2023-09-08T08:36:26;7.78;;;5.78;;
31734;SDS011;18313;48.518;9.124;2023-09-08T08:38:54;10.35;;;5.35;;
31734;SDS011;18313;48.518;9.124;2023-09-08T08:41:21;8.05;;;5.45;;
31734;SDS011;18313;48.518;9.124;2023-09-08T08:43:48;8.15;;;5.68;;
31734;SDS011;18313;48.518;9.124;2023-09-08T08:46:17;8.85;;;5.65;;
31734;SDS011;18313;48.518;9.124;2023-09-08T08:48:45;11.88;;;5.57;;
31734;SDS011;18313;48.518;9.124;2023-09-08T08:51:13;6.78;;;5.20;;
31734;SDS011;18313;48.518;9.124;2023-09-08T08:53:42;9.70;;;5.28;;
31734;SDS011;18313;48.518;9.124;2023-09-08T08:56:09;6.85;;;5.47;;
31734;SDS011;18313;48.518;9.124;2023-09-08T08:58:37;6.40;;;5.20;;
31734;SDS011;18313;48.518;9.124;2023-09-08T09:01:06;9.32;;;5.40;;
31734;SDS011;18313;48.518;9.124;2023-09-08T09:03:35;8.23;;;5.25;;
31734;SDS011;18313;48.518;9.124;2023-09-08T09:06:04;7.65;;;5.20;;
31734;SDS011;18313;48.518;9.124;2023-09-08T09:08:32;8.00;;;4.93;;
31734;SDS011;18313;48.518;9.124;2023-09-08T09:11:00;7.72;;;5.00;;
31734;SDS011;18313;48.518;9.124;2023-09-08T09:13:27;7.22;;;5.32;;
31734;SDS011;18313;48.518;9.124;2023-09-08T09:15:58;8.80;;;4.82;;
31734;SDS011;18313;48.518;9.124;2023-09-08T09:18:30;9.30;;;4.80;;
31734;SDS011;18313;48.518;9.124;2023-09-08T09:20:59;6.35;;;4.18;;
31734;SDS011;18313;48.518;9.124;2023-09-08T09:23:31;7.63;;;4.90;;
31734;SDS011;18313;48.518;9.124;2023-09-08T09:26:00;5.70;;;4.30;;
31734;SDS011;18313;48.518;9.124;2023-09-08T09:28:30;8.70;;;4.70;;
31734;SDS011;18313;48.518;9.124;2023-09-08T09:30:58;8.25;;;4.78;;
31734;SDS011;18313;48.518;9.124;2023-09-08T09:33:26;7.32;;;4.72;;
31734;SDS011;18313;48.518;9.124;2023-09-08T09:35:56;7.45;;;4.35;;
31734;SDS011;18313;48.518;9.124;2023-09-08T09:38:25;6.47;;;4.30;;
31734;SDS011;18313;48.518;9.124;2023-09-08T09:40:53;7.28;;;4.40;;
31734;SDS011;18313;48.518;9.124;2023-09-08T09:43:22;9.25;;;4.28;;
31734;SDS011;18313;48.518;9.124;2023-09-08T09:45:49;7.60;;;4.82;;
31734;SDS011;18313;48.518;9.124;2023-09-08T09:48:16;6.28;;;4.40;;
31734;SDS011;18313;48.518;9.124;2023-09-08T09:50:48;6.68;;;4.70;;
31734;SDS011;18313;48.518;9.124;2023-09-08T09:53:19;6.65;;;4.47;;
31734;SDS011;18313;48.518;9.124;2023-09-08T09:55:47;8.95;;;4.95;;
31734;SDS011;18313;48.518;9.124;2023-09-08T09:58:14;9.05;;;5.30;;
31734;SDS011;18313;48.518;9.124;2023-09-08T10:00:42;10.07;;;4.47;;
31734;SDS011;18313;48.518;9.124;2023-09-08T10:03:15;5.35;;;3.80;;
31734;SDS011;18313;48.518;9.124;2023-09-08T10:05:44;7.53;;;4.60;;
31734;SDS011;18313;48.518;9.124;2023-09-08T10:08:16;5.50;;;4.00;;
31734;SDS011;18313;48.518;9.124;2023-09-08T10:10:44;6.30;;;3.92;;
31734;SDS011;18313;48.518;9.124;2023-09-08T10:13:18;5.57;;;4.07;;
31734;SDS011;18313;48.518;9.124;2023-09-08T10:15:52;5.72;;;4.32;;
31734;SDS011;18313;48.518;9.124;2023-09-08T10:18:24;5.97;;;3.95;;
31734;SDS011;18313;48.518;9.124;2023-09-08T10:20:53;7.30;;;4.38;;
31734;SDS011;18313;48.518;9.124;2023-09-08T10:23:23;9.88;;;4.40;;
31734;SDS011;18313;48.518;9.124;2023-09-08T10:25:56;6.60;;;4.32;;
31734;SDS011;18313;48.518;9.124;2023-09-08T10:28:31;7.63;;;4.88;;
31734;SDS011;18313;48.518;9.124;2023-09-08T10:31:00;7.43;;;3.85;;
31734;SDS011;18313;48.518;9.124;2023-09-08T10:33:29;5.95;;;4.07;;
31734;SDS011;18313;48.518;9.124;2023-09-08T10:35:58;8.10;;;4.50;;
31734;SDS011;18313;48.518;9.124;2023-09-08T10:38:32;7.32;;;4.20;;
31734;SDS011;18313;48.518;9.124;2023-09-08T10:43:56;8.88;;;4.40;;
31734;SDS011;18313;48.518;9.124;2023-09-08T10:46:35;6.50;;;4.20;;
31734;SDS011;18313;48.518;9.124;2023-09-08T10:49:04;8.35;;;4.15;;
31734;SDS011;18313;48.518;9.124;2023-09-08T10:51:34;6.10;;;4.22;;
31734;SDS011;18313;48.518;9.124;2023-09-08T10:54:01;7.60;;;3.95;;
31734;SDS011;18313;48.518;9.124;2023-09-08T10:56:47;6.40;;;3.90;;
31734;SDS011;18313;48.518;9.124;2023-09-08T10:59:22;8.07;;;3.85;;
31734;SDS011;18313;48.518;9.124;2023-09-08T11:01:54;6.70;;;3.97;;
31734;SDS011;18313;48.518;9.124;2023-09-08T11:04:23;4.28;;;3.75;;
31734;SDS011;18313;48.518;9.124;2023-09-08T11:06:55;7.78;;;3.45;;
31734;SDS011;18313;48.518;9.124;2023-09-08T11:09:23;6.05;;;3.50;;
31734;SDS011;18313;48.518;9.124;2023-09-08T11:11:53;7.75;;;3.90;;
31734;SDS011;18313;48.518;9.124;2023-09-08T11:14:25;8.65;;;3.80;;
31734;SDS011;18313;48.518;9.124;2023-09-08T11:16:52;5.53;;;3.53;;
31734;SDS011;18313;48.518;9.124;2023-09-08T11:19:19;5.82;;;4.05;;
31734;SDS011;18313;48.518;9.124;2023-09-08T11:21:47;6.95;;;3.55;;
31734;SDS011;18313;48.518;9.124;2023-09-08T11:24:20;6.45;;;4.10;;
31734;SDS011;18313;48.518;9.124;2023-09-08T11:26:47;5.25;;;3.70;;
31734;SDS011;18313;48.518;9.124;2023-09-08T11:29:16;7.38;;;3.70;;
31734;SDS011;18313;48.518;9.124;2023-09-08T11:31:44;5.18;;;3.72;;
31734;SDS011;18313;48.518;9.124;2023-09-08T11:34:17;5.03;;;3.83;;
31734;SDS011;18313;48.518;9.124;2023-09-08T11:36:59;6.88;;;4.03;;
31734;SDS011;18313;48.518;9.124;2023-09-08T11:39:29;7.85;;;4.25;;
31734;SDS011;18313;48.518;9.124;2023-09-08T11:42:01;6.88;;;4.07;;
31734;SDS011;18313;48.518;9.124;2023-09-08T11:44:30;7.45;;;3.80;;
31734;SDS011;18313;48.518;9.124;2023-09-08T11:46:59;6.80;;;3.90;;
31734;SDS011;18313;48.518;9.124;2023-09-08T11:49:33;6.00;;;3.60;;
31734;SDS011;18313;48.518;9.124;2023-09-08T11:52:01;8.82;;;4.07;;
31734;SDS011;18313;48.518;9.124;2023-09-08T11:54:31;5.30;;;3.55;;
31734;SDS011;18313;48.518;9.124;2023-09-08T11:57:00;5.72;;;3.80;;
31734;SDS011;18313;48.518;9.124;2023-09-08T11:59:34;5.43;;;4.03;;
31734;SDS011;18313;48.518;9.124;2023-09-08T12:02:01;6.30;;;4.13;;
31734;SDS011;18313;48.518;9.124;2023-09-08T12:04:29;6.38;;;4.03;;
31734;SDS011;18313;48.518;9.124;2023-09-08T12:06:58;6.60;;;4.10;;
31734;SDS011;18313;48.518;9.124;2023-09-08T12:09:26;7.63;;;3.88;;
31734;SDS011;18313;48.518;9.124;2023-09-08T12:11:53;9.80;;;4.03;;
31734;SDS011;18313;48.518;9.124;2023-09-08T12:14:26;6.72;;;3.90;;
31734;SDS011;18313;48.518;9.124;2023-09-08T12:17:04;6.10;;;3.60;;
31734;SDS011;18313;48.518;9.124;2023-09-08T12:19:44;4.80;;;3.53;;
31734;SDS011;18313;48.518;9.124;2023-09-08T12:22:17;6.70;;;3.40;;
31734;SDS011;18313;48.518;9.124;2023-09-08T12:27:29;5.53;;;3.22;;
31734;SDS011;18313;48.518;9.124;2023-09-08T12:29:56;4.88;;;3.40;;
31734;SDS011;18313;48.518;9.124;2023-09-08T12:32:30;5.90;;;3.40;;
31734;SDS011;18313;48.518;9.124;2023-09-08T12:34:58;4.20;;;3.38;;
31734;SDS011;18313;48.518;9.124;2023-09-08T12:37:29;5.88;;;3.42;;
31734;SDS011;18313;48.518;9.124;2023-09-08T12:39:59;4.78;;;3.38;;
31734;SDS011;18313;48.518;9.124;2023-09-08T12:42:28;6.40;;;3.50;;
31734;SDS011;18313;48.518;9.124;2023-09-08T12:45:03;5.70;;;3.80;;
31734;SDS011;18313;48.518;9.124;2023-09-08T12:47:31;5.57;;;3.75;;
31734;SDS011;18313;48.518;9.124;2023-09-08T12:50:00;5.60;;;3.58;;
31734;SDS011;18313;48.518;9.124;2023-09-08T12:52:28;5.60;;;3.78;;
31734;SDS011;18313;48.518;9.124;2023-09-08T12:54:55;4.38;;;3.50;;
31734;SDS011;18313;48.518;9.124;2023-09-08T12:57:22;6.57;;;3.58;;
31734;SDS011;18313;48.518;9.124;2023-09-08T12:59:49;5.07;;;3.53;;
31734;SDS011;18313;48.518;9.124;2023-09-08T13:02:18;4.53;;;3.50;;
31734;SDS011;18313;48.518;9.124;2023-09-08T13:04:48;23.23;;;4.13;;
31734;SDS011;18313;48.518;9.124;2023-09-08T13:07:18;5.75;;;3.70;;
31734;SDS011;18313;48.518;9.124;2023-09-08T13:09:47;6.95;;;3.78;;
31734;SDS011;18313;48.518;9.124;2023-09-08T13:12:16;5.07;;;3.58;;
31734;SDS011;18313;48.518;9.124;2023-09-08T13:14:43;4.70;;;3.50;;
31734;SDS011;18313;48.518;9.124;2023-09-08T13:17:10;6.22;;;3.75;;
31734;SDS011;18313;48.518;9.124;2023-09-08T13:19:38;13.85;;;3.88;;
31734;SDS011;18313;48.518;9.124;2023-09-08T13:22:05;7.05;;;3.47;;
31734;SDS011;18313;48.518;9.124;2023-09-08T13:24:32;5.70;;;3.20;;
31734;SDS011;18313;48.518;9.124;2023-09-08T13:27:00;7.97;;;3.65;;
31734;SDS011;18313;48.518;9.124;2023-09-08T13:29:28;4.43;;;3.60;;
31734;SDS011;18313;48.518;9.124;2023-09-08T13:31:55;4.80;;;3.42;;
31734;SDS011;18313;48.518;9.124;2023-09-08T13:34:24;6.85;;;3.80;;
31734;SDS011;18313;48.518;9.124;2023-09-08T13:36:52;6.40;;;3.47;;
31734;SDS011;18313;48.518;9.124;2023-09-08T13:39:19;7.00;;;3.75;;
31734;SDS011;18313;48.518;9.124;2023-09-08T13:44:17;5.95;;;3.38;;
31734;SDS011;18313;48.518;9.124;2023-09-08T13:46:52;6.38;;;3.60;;
31734;SDS011;18313;48.518;9.124;2023-09-08T13:49:25;5.50;;;3.70;;
31734;SDS011;18313;48.518;9.124;2023-09-08T13:51:55;5.80;;;3.95;;
31734;SDS011;18313;48.518;9.124;2023-09-08T13:54:27;5.68;;;3.42;;
31734;SDS011;18313;48.518;9.124;2023-09-08T13:57:01;5.00;;;3.67;;
31734;SDS011;18313;48.518;9.124;2023-09-08T13:59:34;7.90;;;3.75;;
31734;SDS011;18313;48.518;9.124;2023-09-08T14:02:03;5.82;;;3.60;;
31734;SDS011;18313;48.518;9.124;2023-09-08T14:04:33;5.95;;;3.67;;
31734;SDS011;18313;48.518;9.124;2023-09-08T14:07:06;6.57;;;3.55;;
31734;SDS011;18313;48.518;9.124;2023-09-08T14:09:43;7.40;;;3.65;;
31734;SDS011;18313;48.518;9.124;2023-09-08T14:12:13;5.47;;;3.78;;
31734;SDS011;18313;48.518;9.124;2023-09-08T14:14:43;5.15;;;3.53;;
31734;SDS011;18313;48.518;9.124;2023-09-08T14:17:13;4.65;;;3.40;;
31734;SDS011;18313;48.518;9.124;2023-09-08T14:19:40;6.15;;;3.70;;
31734;SDS011;18313;48.518;9.124;2023-09-08T14:22:07;5.72;;;3.78;;
31734;SDS011;18313;48.518;9.124;2023-09-08T14:24:36;7.20;;;3.80;;
31734;SDS011;18313;48.518;9.124;2023-09-08T14:27:03;7.57;;;4.03;;
31734;SDS011;18313;48.518;9.124;2023-09-08T14:29:30;7.65;;;3.70;;
31734;SDS011;18313;48.518;9.124;2023-09-08T14:32:02;5.78;;;3.75;;
31734;SDS011;18313;48.518;9.124;2023-09-08T14:34:31;6.57;;;4.22;;
31734;SDS011;18313;48.518;9.124;2023-09-08T14:36:58;5.03;;;3.80;;
31734;SDS011;18313;48.518;9.124;2023-09-08T14:39:35;5.90;;;4.10;;
31734;SDS011;18313;48.518;9.124;2023-09-08T14:42:02;6.00;;;3.70;;
31734;SDS011;18313;48.518;9.124;2023-09-08T14:44:36;5.15;;;3.80;;
31734;SDS011;18313;48.518;9.124;2023-09-08T14:47:10;5.13;;;3.75;;
31734;SDS011;18313;48.518;9.124;2023-09-08T14:49:37;6.15;;;3.95;;
31734;SDS011;18313;48.518;9.124;2023-09-08T14:52:05;9.13;;;3.88;;
31734;SDS011;18313;48.518;9.124;2023-09-08T14:54:34;6.93;;;3.85;;
31734;SDS011;18313;48.518;9.124;2023-09-08T14:57:01;5.80;;;3.47;;